sensor_id;sensor_type;location;lat;lon;timestamp;pressure;altitude;pressure_sealevel;temperature;humidity
22018;BME280;11173;51.050;7.108;2023-04-10T00:08:57;100124.06;;;6.05;54.71
22018;BME280;11173;51.050;7.108;2023-04-10T00:18:57;100117.78;;;6.12;54.75
22018;BME280;11173;51.050;7.108;2023-04-10T00:28:57;100113.81;;;6.09;54.95
22018;BME280;11173;51.050;7.108;2023-04-10T00:38:58;100101.16;;;6.08;54.81
22018;BME280;11173;51.050;7.108;2023-04-10T00:48:58;100097.22;;;6.09;54.64
22018;BME280;11173;51.050;7.108;2023-04-10T00:58:59;100083.72;;;6.04;54.49
22018;BME280;11173;51.050;7.108;2023-04-10T01:09:39;100084.91;;;6.03;53.93
22018;BME280;11173;51.050;7.108;2023-04-10T01:30:04;100058.34;;;5.95;54.84
22018;BME280;11173;51.050;7.108;2023-04-10T01:40:08;100035.91;;;6.04;55.13
22018;BME280;11173;51.050;7.108;2023-04-10T01:50:10;100039.06;;;6.02;54.96
22018;BME280;11173;51.050;7.108;2023-04-10T02:00:11;100029.25;;;6.08;54.80
22018;BME280;11173;51.050;7.108;2023-04-10T02:10:14;100013.88;;;6.14;54.64
22018;BME280;11173;51.050;7.108;2023-04-10T02:20:18;100004.09;;;6.24;54.47
22018;BME280;11173;51.050;7.108;2023-04-10T02:30:19;99999.41;;;6.32;53.70
22018;BME280;11173;51.050;7.108;2023-04-10T02:40:19;99998.66;;;6.35;53.61
22018;BME280;11173;51.050;7.108;2023-04-10T02:50:20;100001.84;;;6.37;54.08
22018;BME280;11173;51.050;7.108;2023-04-10T03:00:21;99992.69;;;6.29;53.88
22018;BME280;11173;51.050;7.108;2023-04-10T03:10:22;99991.44;;;6.23;53.68
22018;BME280;11173;51.050;7.108;2023-04-10T03:20:22;99975.56;;;6.16;53.55
22018;BME280;11173;51.050;7.108;2023-04-10T03:30:22;99980.28;;;6.12;54.00
22018;BME280;11173;51.050;7.108;2023-04-10T03:40:23;99951.88;;;6.15;54.14
22018;BME280;11173;51.050;7.108;2023-04-10T03:50:23;99943.16;;;6.13;53.98
22018;BME280;11173;51.050;7.108;2023-04-10T04:00:24;99945.13;;;6.16;54.71
22018;BME280;11173;51.050;7.108;2023-04-10T04:10:25;99921.00;;;6.10;54.51
22018;BME280;11173;51.050;7.108;2023-04-10T04:20:26;99925.25;;;6.00;54.05
22018;BME280;11173;51.050;7.108;2023-04-10T04:30:26;99919.31;;;5.98;54.20
22018;BME280;11173;51.050;7.108;2023-04-10T04:40:26;99920.06;;;5.91;55.07
22018;BME280;11173;51.050;7.108;2023-04-10T04:50:27;99917.63;;;5.83;55.35
22018;BME280;11173;51.050;7.108;2023-04-10T05:00:27;99930.59;;;5.75;55.09
22018;BME280;11173;51.050;7.108;2023-04-10T05:10:27;99908.84;;;5.73;55.60
22018;BME280;11173;51.050;7.108;2023-04-10T05:20:28;99915.28;;;5.88;56.02
22018;BME280;11173;51.050;7.108;2023-04-10T05:30:28;99927.19;;;5.96;55.65
22018;BME280;11173;51.050;7.108;2023-04-10T05:40:28;99920.22;;;6.13;56.34
22018;BME280;11173;51.050;7.108;2023-04-10T05:50:29;99924.78;;;6.46;56.68
22018;BME280;11173;51.050;7.108;2023-04-10T06:00:29;99927.88;;;7.04;58.08
22018;BME280;11173;51.050;7.108;2023-04-10T06:10:30;99919.38;;;7.81;56.88
22018;BME280;11173;51.050;7.108;2023-04-10T06:20:31;99920.94;;;8.46;55.43
22018;BME280;11173;51.050;7.108;2023-04-10T06:30:32;99915.34;;;8.61;54.79
22018;BME280;11173;51.050;7.108;2023-04-10T06:40:33;99909.78;;;8.64;54.96
22018;BME280;11173;51.050;7.108;2023-04-10T06:50:34;99912.50;;;8.75;52.77
22018;BME280;11173;51.050;7.108;2023-04-10T07:00:34;99931.09;;;9.03;54.32
22018;BME280;11173;51.050;7.108;2023-04-10T07:10:35;99930.91;;;9.46;54.85
22018;BME280;11173;51.050;7.108;2023-04-10T07:20:35;99915.06;;;9.92;55.04
22018;BME280;11173;51.050;7.108;2023-04-10T07:30:36;99892.41;;;10.39;54.15
22018;BME280;11173;51.050;7.108;2023-04-10T07:40:36;99885.91;;;10.87;52.31
22018;BME280;11173;51.050;7.108;2023-04-10T07:50:36;99879.63;;;11.41;53.77
22018;BME280;11173;51.050;7.108;2023-04-10T08:00:37;99865.16;;;11.77;52.54
22018;BME280;11173;51.050;7.108;2023-04-10T08:10:37;99858.34;;;12.01;53.05
22018;BME280;11173;51.050;7.108;2023-04-10T08:20:38;99854.81;;;12.21;52.79
22018;BME280;11173;51.050;7.108;2023-04-10T08:30:38;99851.13;;;12.47;53.10
22018;BME280;11173;51.050;7.108;2023-04-10T08:40:39;99832.16;;;12.79;52.73
22018;BME280;11173;51.050;7.108;2023-04-10T08:50:41;99830.53;;;13.18;50.53
22018;BME280;11173;51.050;7.108;2023-04-10T09:00:44;99814.53;;;13.67;52.05
22018;BME280;11173;51.050;7.108;2023-04-10T09:10:44;99782.31;;;14.08;49.66
22018;BME280;11173;51.050;7.108;2023-04-10T09:20:45;99779.19;;;14.48;50.37
22018;BME280;11173;51.050;7.108;2023-04-10T09:30:50;99759.81;;;14.67;49.43
22018;BME280;11173;51.050;7.108;2023-04-10T09:40:51;99761.69;;;14.86;49.63
22018;BME280;11173;51.050;7.108;2023-04-10T09:50:51;99764.38;;;15.03;48.31
22018;BME280;11173;51.050;7.108;2023-04-10T10:00:52;99744.94;;;15.34;48.57
22018;BME280;11173;51.050;7.108;2023-04-10T10:10:55;99742.25;;;15.78;48.64
22018;BME280;11173;51.050;7.108;2023-04-10T10:20:58;99718.59;;;16.23;47.03
22018;BME280;11173;51.050;7.108;2023-04-10T10:31:01;99696.75;;;16.49;47.23
22018;BME280;11173;51.050;7.108;2023-04-10T10:41:07;99682.31;;;16.69;43.67
22018;BME280;11173;51.050;7.108;2023-04-10T10:51:09;99657.97;;;16.76;44.57
22018;BME280;11173;51.050;7.108;2023-04-10T11:01:10;99629.25;;;16.90;44.93
22018;BME280;11173;51.050;7.108;2023-04-10T11:11:22;99611.00;;;17.22;47.04
22018;BME280;11173;51.050;7.108;2023-04-10T11:21:23;99580.38;;;17.61;45.75
22018;BME280;11173;51.050;7.108;2023-04-10T11:31:24;99546.78;;;18.00;45.68
22018;BME280;11173;51.050;7.108;2023-04-10T11:41:30;99536.97;;;18.29;46.84
22018;BME280;11173;51.050;7.108;2023-04-10T11:51:31;99529.06;;;18.52;45.20
22018;BME280;11173;51.050;7.108;2023-04-10T12:01:32;99521.78;;;18.60;42.50
22018;BME280;11173;51.050;7.108;2023-04-10T12:11:33;99511.47;;;18.57;44.00
22018;BME280;11173;51.050;7.108;2023-04-10T12:21:37;99481.34;;;18.63;43.76
22018;BME280;11173;51.050;7.108;2023-04-10T12:31:38;99469.38;;;18.68;43.43
22018;BME280;11173;51.050;7.108;2023-04-10T12:41:39;99446.75;;;18.77;41.85
22018;BME280;11173;51.050;7.108;2023-04-10T12:51:50;99448.53;;;18.90;42.77
22018;BME280;11173;51.050;7.108;2023-04-10T13:02:11;99429.59;;;19.05;40.62
22018;BME280;11173;51.050;7.108;2023-04-10T13:12:32;99432.22;;;19.23;45.08
22018;BME280;11173;51.050;7.108;2023-04-10T13:22:54;99411.19;;;19.54;42.69
22018;BME280;11173;51.050;7.108;2023-04-10T13:33:15;99377.38;;;19.60;40.85
22018;BME280;11173;51.050;7.108;2023-04-10T13:43:35;99362.00;;;19.46;41.05
22018;BME280;11173;51.050;7.108;2023-04-10T13:53:56;99331.84;;;19.37;40.47
22018;BME280;11173;51.050;7.108;2023-04-10T14:04:18;99305.06;;;19.18;40.64
22018;BME280;11173;51.050;7.108;2023-04-10T14:14:38;99293.00;;;18.87;39.53
22018;BME280;11173;51.050;7.108;2023-04-10T14:24:59;99284.66;;;18.63;39.41
22018;BME280;11173;51.050;7.108;2023-04-10T14:35:20;99247.59;;;18.56;39.72
22018;BME280;11173;51.050;7.108;2023-04-10T14:45:41;99236.00;;;18.68;40.94
22018;BME280;11173;51.050;7.108;2023-04-10T14:56:08;99223.34;;;18.79;40.99
22018;BME280;11173;51.050;7.108;2023-04-10T15:06:31;99213.16;;;19.17;39.71
22018;BME280;11173;51.050;7.108;2023-04-10T15:16:54;99214.06;;;19.64;40.11
22018;BME280;11173;51.050;7.108;2023-04-10T15:27:15;99194.16;;;19.73;39.05
22018;BME280;11173;51.050;7.108;2023-04-10T15:37:35;99209.00;;;19.47;36.28
22018;BME280;11173;51.050;7.108;2023-04-10T15:47:56;99190.13;;;18.88;34.46
22018;BME280;11173;51.050;7.108;2023-04-10T15:58:20;99197.75;;;18.23;35.39
22018;BME280;11173;51.050;7.108;2023-04-10T16:08:41;99181.03;;;17.65;37.48
22018;BME280;11173;51.050;7.108;2023-04-10T16:19:01;99171.75;;;17.17;37.50
22018;BME280;11173;51.050;7.108;2023-04-10T16:29:22;99164.00;;;16.69;38.67
22018;BME280;11173;51.050;7.108;2023-04-10T16:39:43;99178.81;;;16.27;39.63
22018;BME280;11173;51.050;7.108;2023-04-10T16:50:04;99179.00;;;15.86;40.17
22018;BME280;11173;51.050;7.108;2023-04-10T17:00:25;99115.97;;;15.50;41.94
22018;BME280;11173;51.050;7.108;2023-04-10T17:10:48;99086.97;;;15.07;43.01
22018;BME280;11173;51.050;7.108;2023-04-10T17:21:10;99045.56;;;14.62;43.66
22018;BME280;11173;51.050;7.108;2023-04-10T17:31:31;99045.75;;;14.27;43.95
22018;BME280;11173;51.050;7.108;2023-04-10T17:41:52;99026.63;;;13.94;44.58
22018;BME280;11173;51.050;7.108;2023-04-10T17:52:13;99000.50;;;13.75;45.07
22018;BME280;11173;51.050;7.108;2023-04-10T18:02:33;99003.41;;;13.62;45.25
22018;BME280;11173;51.050;7.108;2023-04-10T18:12:54;99016.69;;;13.49;45.44
22018;BME280;11173;51.050;7.108;2023-04-10T18:23:18;99013.50;;;13.38;45.73
22018;BME280;11173;51.050;7.108;2023-04-10T18:33:38;99008.72;;;13.25;45.92
22018;BME280;11173;51.050;7.108;2023-04-10T18:43:59;99032.81;;;13.23;46.04
22018;BME280;11173;51.050;7.108;2023-04-10T18:54:20;99002.97;;;13.20;46.54
22018;BME280;11173;51.050;7.108;2023-04-10T19:04:21;99031.38;;;13.18;47.44
22018;BME280;11173;51.050;7.108;2023-04-10T19:14:21;99032.03;;;13.22;47.45
22018;BME280;11173;51.050;7.108;2023-04-10T19:24:22;99015.81;;;13.17;48.36
22018;BME280;11173;51.050;7.108;2023-04-10T19:34:22;99055.75;;;12.96;49.51
22018;BME280;11173;51.050;7.108;2023-04-10T19:44:22;99067.53;;;12.52;51.57
22018;BME280;11173;51.050;7.108;2023-04-10T19:54:26;99072.66;;;12.15;51.57
22018;BME280;11173;51.050;7.108;2023-04-10T20:04:26;99062.97;;;11.78;53.13
22018;BME280;11173;51.050;7.108;2023-04-10T20:14:27;99057.09;;;11.46;54.32
22018;BME280;11173;51.050;7.108;2023-04-10T20:24:28;99056.53;;;11.22;58.75
22018;BME280;11173;51.050;7.108;2023-04-10T20:34:29;99075.84;;;11.00;58.06
22018;BME280;11173;51.050;7.108;2023-04-10T20:44:29;99087.88;;;10.64;58.32
22018;BME280;11173;51.050;7.108;2023-04-10T20:54:30;99081.47;;;10.31;58.33
22018;BME280;11173;51.050;7.108;2023-04-10T21:04:30;99061.47;;;10.00;58.00
22018;BME280;11173;51.050;7.108;2023-04-10T21:14:32;99067.75;;;9.84;58.37
22018;BME280;11173;51.050;7.108;2023-04-10T21:24:35;99076.84;;;9.68;57.72
22018;BME280;11173;51.050;7.108;2023-04-10T21:34:35;99011.44;;;9.60;58.03
22018;BME280;11173;51.050;7.108;2023-04-10T21:44:36;98983.66;;;9.60;58.10
22018;BME280;11173;51.050;7.108;2023-04-10T21:54:36;99001.56;;;9.59;57.86
22018;BME280;11173;51.050;7.108;2023-04-10T22:04:37;98986.94;;;9.54;57.71
22018;BME280;11173;51.050;7.108;2023-04-10T22:14:37;98987.38;;;9.53;57.42
22018;BME280;11173;51.050;7.108;2023-04-10T22:24:37;98905.25;;;9.48;57.24
22018;BME280;11173;51.050;7.108;2023-04-10T22:34:38;98934.69;;;9.46;57.39
22018;BME280;11173;51.050;7.108;2023-04-10T22:44:38;98931.78;;;9.33;57.57
22018;BME280;11173;51.050;7.108;2023-04-10T22:54:38;98925.25;;;9.23;58.13
22018;BME280;11173;51.050;7.108;2023-04-10T23:04:39;98923.19;;;9.27;58.29
22018;BME280;11173;51.050;7.108;2023-04-10T23:14:39;98933.44;;;9.30;58.26
22018;BME280;11173;51.050;7.108;2023-04-10T23:24:40;98941.50;;;9.25;58.18
22018;BME280;11173;51.050;7.108;2023-04-10T23:34:40;98956.41;;;9.14;58.38
22018;BME280;11173;51.050;7.108;2023-04-10T23:44:41;98950.69;;;9.02;58.48
22018;BME280;11173;51.050;7.108;2023-04-10T23:54:41;98949.81;;;8.85;58.81
